Jacksonville, Texas
Current Conditions -  °F | °C
As of 3:55 PM on Thursday 27 Nov 2014 (Local Time) from KJSO Reporting Station
Clear Clear  
Wind Chill: 61°   Ceiling: Unl
Heat Index: 61°   Visibility: 10mi
Dew Point: 23°   Wind: 0mph
Humidity: 23%   Direction: NA
Pressure: 30.44"   Gusts: NA
Location:  31.96°N, 95.27°W
Report Text: KJSO 272155Z AUTO 00000KT 10SM CLR 16/M05 A3044 RMK AO2 T01601051
Loading
Personal Weather Stations






























Interactive Weather Map New forecast layout! Learn more

10-Day Weather Forecast

Advertisements
Track Severe Weather on mobile